sensor_id;sensor_type;location;lat;lon;timestamp;temperature;humidity
5796;DHT22;2924;51.458;7.046;2023-05-07T00:02:02;14.00;99.90
5796;DHT22;2924;51.458;7.046;2023-05-07T00:04:28;14.00;99.90
5796;DHT22;2924;51.458;7.046;2023-05-07T00:06:53;13.90;99.90
5796;DHT22;2924;51.458;7.046;2023-05-07T00:09:19;13.90;99.90
5796;DHT22;2924;51.458;7.046;2023-05-07T00:11:44;13.90;99.90
5796;DHT22;2924;51.458;7.046;2023-05-07T00:14:10;13.90;99.90
5796;DHT22;2924;51.458;7.046;2023-05-07T00:16:35;13.90;99.90
5796;DHT22;2924;51.458;7.046;2023-05-07T00:19:01;13.90;99.90
5796;DHT22;2924;51.458;7.046;2023-05-07T00:21:27;13.80;99.90
5796;DHT22;2924;51.458;7.046;2023-05-07T00:23:53;13.80;99.90
5796;DHT22;2924;51.458;7.046;2023-05-07T00:26:19;13.80;99.90
5796;DHT22;2924;51.458;7.046;2023-05-07T00:28:44;13.80;99.90
5796;DHT22;2924;51.458;7.046;2023-05-07T00:31:10;13.80;99.90
5796;DHT22;2924;51.458;7.046;2023-05-07T00:33:35;13.70;99.90
5796;DHT22;2924;51.458;7.046;2023-05-07T00:36:01;13.70;99.90
5796;DHT22;2924;51.458;7.046;2023-05-07T00:38:27;13.60;99.90
5796;DHT22;2924;51.458;7.046;2023-05-07T00:40:52;13.60;99.90
5796;DHT22;2924;51.458;7.046;2023-05-07T00:43:18;13.60;99.90
5796;DHT22;2924;51.458;7.046;2023-05-07T00:45:44;13.60;99.90
5796;DHT22;2924;51.458;7.046;2023-05-07T00:48:09;13.50;99.90
5796;DHT22;2924;51.458;7.046;2023-05-07T00:50:35;13.50;99.90
5796;DHT22;2924;51.458;7.046;2023-05-07T00:53:01;13.50;99.90
5796;DHT22;2924;51.458;7.046;2023-05-07T00:55:26;13.50;99.90
5796;DHT22;2924;51.458;7.046;2023-05-07T00:57:52;13.40;99.90
5796;DHT22;2924;51.458;7.046;2023-05-07T01:00:19;13.30;99.90
5796;DHT22;2924;51.458;7.046;2023-05-07T01:02:45;13.30;99.90
5796;DHT22;2924;51.458;7.046;2023-05-07T01:05:13;13.30;99.90
5796;DHT22;2924;51.458;7.046;2023-05-07T01:07:40;13.30;99.90
5796;DHT22;2924;51.458;7.046;2023-05-07T01:10:08;13.20;99.90
5796;DHT22;2924;51.458;7.046;2023-05-07T01:12:36;13.20;99.90
5796;DHT22;2924;51.458;7.046;2023-05-07T01:15:02;13.20;99.90
5796;DHT22;2924;51.458;7.046;2023-05-07T01:17:28;13.20;99.90
5796;DHT22;2924;51.458;7.046;2023-05-07T01:19:54;13.20;99.90
5796;DHT22;2924;51.458;7.046;2023-05-07T01:22:31;13.20;99.90
5796;DHT22;2924;51.458;7.046;2023-05-07T01:24:58;13.30;99.90
5796;DHT22;2924;51.458;7.046;2023-05-07T01:27:25;13.40;99.90
5796;DHT22;2924;51.458;7.046;2023-05-07T01:29:50;13.40;99.90
5796;DHT22;2924;51.458;7.046;2023-05-07T01:32:18;13.50;99.90
5796;DHT22;2924;51.458;7.046;2023-05-07T01:34:46;13.50;99.90
5796;DHT22;2924;51.458;7.046;2023-05-07T01:37:14;13.50;99.90
5796;DHT22;2924;51.458;7.046;2023-05-07T01:39:39;13.50;99.90
5796;DHT22;2924;51.458;7.046;2023-05-07T01:42:05;13.40;99.90
5796;DHT22;2924;51.458;7.046;2023-05-07T01:44:31;13.40;99.90
5796;DHT22;2924;51.458;7.046;2023-05-07T01:46:57;13.40;99.90
5796;DHT22;2924;51.458;7.046;2023-05-07T01:49:24;13.50;99.90
5796;DHT22;2924;51.458;7.046;2023-05-07T01:51:50;13.50;99.90
5796;DHT22;2924;51.458;7.046;2023-05-07T01:54:16;13.50;99.90
5796;DHT22;2924;51.458;7.046;2023-05-07T01:56:42;13.50;99.90
5796;DHT22;2924;51.458;7.046;2023-05-07T01:59:07;13.50;99.90
5796;DHT22;2924;51.458;7.046;2023-05-07T02:01:33;13.50;99.90
5796;DHT22;2924;51.458;7.046;2023-05-07T02:03:58;13.50;99.90
5796;DHT22;2924;51.458;7.046;2023-05-07T02:06:24;13.40;99.90
5796;DHT22;2924;51.458;7.046;2023-05-07T02:08:49;13.40;99.90
5796;DHT22;2924;51.458;7.046;2023-05-07T02:11:15;13.40;99.90
5796;DHT22;2924;51.458;7.046;2023-05-07T02:13:41;13.40;99.90
5796;DHT22;2924;51.458;7.046;2023-05-07T02:16:07;13.40;99.90
5796;DHT22;2924;51.458;7.046;2023-05-07T02:18:32;13.40;99.90
5796;DHT22;2924;51.458;7.046;2023-05-07T02:20:58;13.30;99.90
5796;DHT22;2924;51.458;7.046;2023-05-07T02:23:24;13.30;99.90
5796;DHT22;2924;51.458;7.046;2023-05-07T02:25:50;13.30;99.90
5796;DHT22;2924;51.458;7.046;2023-05-07T02:28:16;13.30;99.90
5796;DHT22;2924;51.458;7.046;2023-05-07T02:30:41;13.30;99.90
5796;DHT22;2924;51.458;7.046;2023-05-07T02:33:07;13.30;99.90
5796;DHT22;2924;51.458;7.046;2023-05-07T02:35:33;13.20;99.90
5796;DHT22;2924;51.458;7.046;2023-05-07T02:37:59;13.10;99.90
5796;DHT22;2924;51.458;7.046;2023-05-07T02:40:24;13.10;99.90
5796;DHT22;2924;51.458;7.046;2023-05-07T02:42:50;13.10;99.90
5796;DHT22;2924;51.458;7.046;2023-05-07T02:45:16;13.10;99.90
5796;DHT22;2924;51.458;7.046;2023-05-07T02:47:41;13.10;99.90
5796;DHT22;2924;51.458;7.046;2023-05-07T02:50:07;13.00;99.90
5796;DHT22;2924;51.458;7.046;2023-05-07T02:52:32;13.10;99.90
5796;DHT22;2924;51.458;7.046;2023-05-07T02:54:58;13.00;99.90
5796;DHT22;2924;51.458;7.046;2023-05-07T02:57:24;12.90;99.90
5796;DHT22;2924;51.458;7.046;2023-05-07T02:59:49;12.80;99.90
5796;DHT22;2924;51.458;7.046;2023-05-07T03:02:16;12.90;99.90
5796;DHT22;2924;51.458;7.046;2023-05-07T03:04:41;12.90;99.90
5796;DHT22;2924;51.458;7.046;2023-05-07T03:07:07;12.90;99.90
5796;DHT22;2924;51.458;7.046;2023-05-07T03:09:33;12.80;99.90
5796;DHT22;2924;51.458;7.046;2023-05-07T03:11:58;12.90;99.90
5796;DHT22;2924;51.458;7.046;2023-05-07T03:14:24;12.80;99.90
5796;DHT22;2924;51.458;7.046;2023-05-07T03:16:50;12.80;99.90
5796;DHT22;2924;51.458;7.046;2023-05-07T03:19:15;12.80;99.90
5796;DHT22;2924;51.458;7.046;2023-05-07T03:21:41;12.80;99.90
5796;DHT22;2924;51.458;7.046;2023-05-07T03:24:06;12.80;99.90
5796;DHT22;2924;51.458;7.046;2023-05-07T03:26:32;12.80;99.90
5796;DHT22;2924;51.458;7.046;2023-05-07T03:28:58;12.80;99.90
5796;DHT22;2924;51.458;7.046;2023-05-07T03:31:23;12.70;99.90
5796;DHT22;2924;51.458;7.046;2023-05-07T03:33:51;12.80;99.90
5796;DHT22;2924;51.458;7.046;2023-05-07T03:36:17;12.70;99.90
5796;DHT22;2924;51.458;7.046;2023-05-07T03:38:43;12.70;99.90
5796;DHT22;2924;51.458;7.046;2023-05-07T03:41:08;12.70;99.90
5796;DHT22;2924;51.458;7.046;2023-05-07T03:43:34;12.60;99.90
5796;DHT22;2924;51.458;7.046;2023-05-07T03:45:59;12.60;99.90
5796;DHT22;2924;51.458;7.046;2023-05-07T03:48:25;12.60;99.90
5796;DHT22;2924;51.458;7.046;2023-05-07T03:50:51;12.60;99.90
5796;DHT22;2924;51.458;7.046;2023-05-07T03:53:16;12.60;99.90
5796;DHT22;2924;51.458;7.046;2023-05-07T03:55:42;12.60;99.90
5796;DHT22;2924;51.458;7.046;2023-05-07T03:58:07;12.60;99.90
5796;DHT22;2924;51.458;7.046;2023-05-07T04:00:33;12.60;99.90
5796;DHT22;2924;51.458;7.046;2023-05-07T04:03:03;12.60;99.90
5796;DHT22;2924;51.458;7.046;2023-05-07T04:05:30;12.60;99.90
5796;DHT22;2924;51.458;7.046;2023-05-07T04:07:55;12.60;99.90
5796;DHT22;2924;51.458;7.046;2023-05-07T04:10:21;12.60;99.90
5796;DHT22;2924;51.458;7.046;2023-05-07T04:12:46;12.60;99.90
5796;DHT22;2924;51.458;7.046;2023-05-07T04:15:12;12.60;99.90
5796;DHT22;2924;51.458;7.046;2023-05-07T04:17:38;12.60;99.90
5796;DHT22;2924;51.458;7.046;2023-05-07T04:20:04;12.60;99.90
5796;DHT22;2924;51.458;7.046;2023-05-07T04:22:29;12.60;99.90
5796;DHT22;2924;51.458;7.046;2023-05-07T04:24:55;12.60;99.90
5796;DHT22;2924;51.458;7.046;2023-05-07T04:27:21;12.60;99.90
5796;DHT22;2924;51.458;7.046;2023-05-07T04:29:47;12.60;99.90
5796;DHT22;2924;51.458;7.046;2023-05-07T04:32:13;12.60;99.90
5796;DHT22;2924;51.458;7.046;2023-05-07T04:34:38;12.70;99.90
5796;DHT22;2924;51.458;7.046;2023-05-07T04:37:04;12.70;99.90
5796;DHT22;2924;51.458;7.046;2023-05-07T04:39:29;12.70;99.90
5796;DHT22;2924;51.458;7.046;2023-05-07T04:41:55;12.70;99.90
5796;DHT22;2924;51.458;7.046;2023-05-07T04:44:21;12.80;99.90
5796;DHT22;2924;51.458;7.046;2023-05-07T04:46:46;12.80;99.90
5796;DHT22;2924;51.458;7.046;2023-05-07T04:49:12;12.90;99.90
5796;DHT22;2924;51.458;7.046;2023-05-07T04:51:37;13.00;99.90
5796;DHT22;2924;51.458;7.046;2023-05-07T04:54:03;13.00;99.90
5796;DHT22;2924;51.458;7.046;2023-05-07T04:56:29;13.10;99.90
5796;DHT22;2924;51.458;7.046;2023-05-07T04:58:55;13.20;99.90
5796;DHT22;2924;51.458;7.046;2023-05-07T05:01:21;13.20;99.90
5796;DHT22;2924;51.458;7.046;2023-05-07T05:03:46;13.20;99.90
5796;DHT22;2924;51.458;7.046;2023-05-07T05:06:12;13.20;99.90
5796;DHT22;2924;51.458;7.046;2023-05-07T05:08:37;13.30;99.90
5796;DHT22;2924;51.458;7.046;2023-05-07T05:11:04;13.20;99.90
5796;DHT22;2924;51.458;7.046;2023-05-07T05:13:29;13.40;99.90
5796;DHT22;2924;51.458;7.046;2023-05-07T05:15:55;13.40;99.90
5796;DHT22;2924;51.458;7.046;2023-05-07T05:18:21;13.40;99.90
5796;DHT22;2924;51.458;7.046;2023-05-07T05:20:46;13.40;99.90
5796;DHT22;2924;51.458;7.046;2023-05-07T05:23:12;13.40;99.90
5796;DHT22;2924;51.458;7.046;2023-05-07T05:25:38;13.50;99.90
5796;DHT22;2924;51.458;7.046;2023-05-07T05:28:04;13.60;99.90
5796;DHT22;2924;51.458;7.046;2023-05-07T05:30:30;13.70;99.90
5796;DHT22;2924;51.458;7.046;2023-05-07T05:32:55;13.90;99.90
5796;DHT22;2924;51.458;7.046;2023-05-07T05:35:21;14.00;99.90
5796;DHT22;2924;51.458;7.046;2023-05-07T05:37:46;14.10;99.90
5796;DHT22;2924;51.458;7.046;2023-05-07T05:40:13;14.30;99.90
5796;DHT22;2924;51.458;7.046;2023-05-07T05:42:39;14.30;99.90
5796;DHT22;2924;51.458;7.046;2023-05-07T05:45:05;14.30;99.90
5796;DHT22;2924;51.458;7.046;2023-05-07T05:47:31;14.40;99.90
5796;DHT22;2924;51.458;7.046;2023-05-07T05:49:56;14.40;99.90
5796;DHT22;2924;51.458;7.046;2023-05-07T05:52:22;14.50;99.90
5796;DHT22;2924;51.458;7.046;2023-05-07T05:54:49;14.60;99.90
5796;DHT22;2924;51.458;7.046;2023-05-07T05:57:14;14.70;99.90
5796;DHT22;2924;51.458;7.046;2023-05-07T05:59:40;14.70;99.90
5796;DHT22;2924;51.458;7.046;2023-05-07T06:02:06;14.90;99.90
5796;DHT22;2924;51.458;7.046;2023-05-07T06:04:32;15.10;99.90
5796;DHT22;2924;51.458;7.046;2023-05-07T06:06:58;15.20;99.90
5796;DHT22;2924;51.458;7.046;2023-05-07T06:09:23;15.40;99.90
5796;DHT22;2924;51.458;7.046;2023-05-07T06:11:49;15.50;99.90
5796;DHT22;2924;51.458;7.046;2023-05-07T06:14:15;15.50;99.90
5796;DHT22;2924;51.458;7.046;2023-05-07T06:16:40;15.70;99.90
5796;DHT22;2924;51.458;7.046;2023-05-07T06:19:06;15.70;99.90
5796;DHT22;2924;51.458;7.046;2023-05-07T06:21:31;15.90;99.90
5796;DHT22;2924;51.458;7.046;2023-05-07T06:23:57;15.80;99.90
5796;DHT22;2924;51.458;7.046;2023-05-07T06:26:22;16.00;99.90
5796;DHT22;2924;51.458;7.046;2023-05-07T06:28:48;16.30;99.90
5796;DHT22;2924;51.458;7.046;2023-05-07T06:31:15;16.20;99.90
5796;DHT22;2924;51.458;7.046;2023-05-07T06:33:41;16.50;99.90
5796;DHT22;2924;51.458;7.046;2023-05-07T06:36:07;16.70;99.90
5796;DHT22;2924;51.458;7.046;2023-05-07T06:38:32;16.90;99.90
5796;DHT22;2924;51.458;7.046;2023-05-07T06:40:59;17.20;99.90
5796;DHT22;2924;51.458;7.046;2023-05-07T06:43:24;17.30;99.90
5796;DHT22;2924;51.458;7.046;2023-05-07T06:45:50;17.40;99.90
5796;DHT22;2924;51.458;7.046;2023-05-07T06:48:15;17.40;99.90
5796;DHT22;2924;51.458;7.046;2023-05-07T06:50:42;17.30;99.90
5796;DHT22;2924;51.458;7.046;2023-05-07T06:53:07;17.10;99.90
5796;DHT22;2924;51.458;7.046;2023-05-07T06:55:33;17.00;99.90
5796;DHT22;2924;51.458;7.046;2023-05-07T06:57:58;16.70;99.90
5796;DHT22;2924;51.458;7.046;2023-05-07T07:00:26;16.70;99.90
5796;DHT22;2924;51.458;7.046;2023-05-07T07:02:53;16.80;99.90
5796;DHT22;2924;51.458;7.046;2023-05-07T07:05:18;17.00;99.90
5796;DHT22;2924;51.458;7.046;2023-05-07T07:07:44;17.20;99.90
5796;DHT22;2924;51.458;7.046;2023-05-07T07:10:09;17.30;99.90
5796;DHT22;2924;51.458;7.046;2023-05-07T07:12:35;17.40;99.90
5796;DHT22;2924;51.458;7.046;2023-05-07T07:15:01;17.40;99.90
5796;DHT22;2924;51.458;7.046;2023-05-07T07:17:27;17.60;99.90
5796;DHT22;2924;51.458;7.046;2023-05-07T07:19:53;17.00;99.90
5796;DHT22;2924;51.458;7.046;2023-05-07T07:22:19;17.00;99.90
5796;DHT22;2924;51.458;7.046;2023-05-07T07:24:45;17.20;99.90
5796;DHT22;2924;51.458;7.046;2023-05-07T07:27:10;17.60;99.90
5796;DHT22;2924;51.458;7.046;2023-05-07T07:29:36;17.80;99.90
5796;DHT22;2924;51.458;7.046;2023-05-07T07:32:01;18.00;99.90
5796;DHT22;2924;51.458;7.046;2023-05-07T07:34:27;18.10;99.90
5796;DHT22;2924;51.458;7.046;2023-05-07T07:36:52;18.30;99.90
5796;DHT22;2924;51.458;7.046;2023-05-07T07:39:18;18.70;99.90
5796;DHT22;2924;51.458;7.046;2023-05-07T07:41:44;18.40;99.90
5796;DHT22;2924;51.458;7.046;2023-05-07T07:44:09;18.70;99.90
5796;DHT22;2924;51.458;7.046;2023-05-07T07:46:38;19.10;99.90
5796;DHT22;2924;51.458;7.046;2023-05-07T07:49:03;19.00;99.90
5796;DHT22;2924;51.458;7.046;2023-05-07T07:51:29;19.10;99.90
5796;DHT22;2924;51.458;7.046;2023-05-07T07:53:55;18.70;99.90
5796;DHT22;2924;51.458;7.046;2023-05-07T07:56:23;18.70;99.90
5796;DHT22;2924;51.458;7.046;2023-05-07T07:58:48;18.90;99.90
5796;DHT22;2924;51.458;7.046;2023-05-07T08:01:14;19.20;99.90
5796;DHT22;2924;51.458;7.046;2023-05-07T08:03:39;18.90;99.90
5796;DHT22;2924;51.458;7.046;2023-05-07T08:06:06;19.00;99.90
5796;DHT22;2924;51.458;7.046;2023-05-07T08:08:31;19.50;99.90
5796;DHT22;2924;51.458;7.046;2023-05-07T08:10:57;19.10;99.90
5796;DHT22;2924;51.458;7.046;2023-05-07T08:13:22;19.10;99.90
5796;DHT22;2924;51.458;7.046;2023-05-07T08:15:48;19.00;99.90
5796;DHT22;2924;51.458;7.046;2023-05-07T08:18:13;18.90;99.90
5796;DHT22;2924;51.458;7.046;2023-05-07T08:20:39;18.90;99.90
5796;DHT22;2924;51.458;7.046;2023-05-07T08:23:05;19.30;99.90
5796;DHT22;2924;51.458;7.046;2023-05-07T08:25:33;19.40;99.90
5796;DHT22;2924;51.458;7.046;2023-05-07T08:27:59;19.30;99.90
5796;DHT22;2924;51.458;7.046;2023-05-07T08:30:25;19.60;99.90
5796;DHT22;2924;51.458;7.046;2023-05-07T08:32:51;19.70;99.90
5796;DHT22;2924;51.458;7.046;2023-05-07T08:35:16;19.40;99.90
5796;DHT22;2924;51.458;7.046;2023-05-07T08:37:42;20.30;99.90
5796;DHT22;2924;51.458;7.046;2023-05-07T08:40:09;21.00;99.90
5796;DHT22;2924;51.458;7.046;2023-05-07T08:42:36;21.30;99.90
5796;DHT22;2924;51.458;7.046;2023-05-07T08:45:09;22.10;99.90
5796;DHT22;2924;51.458;7.046;2023-05-07T08:47:47;22.40;99.90
5796;DHT22;2924;51.458;7.046;2023-05-07T08:50:13;23.00;99.90
5796;DHT22;2924;51.458;7.046;2023-05-07T08:52:40;23.60;99.90
5796;DHT22;2924;51.458;7.046;2023-05-07T08:55:07;24.20;99.90
5796;DHT22;2924;51.458;7.046;2023-05-07T08:57:32;24.50;99.90
5796;DHT22;2924;51.458;7.046;2023-05-07T08:59:58;25.00;99.90
5796;DHT22;2924;51.458;7.046;2023-05-07T09:02:24;25.30;99.90
5796;DHT22;2924;51.458;7.046;2023-05-07T09:04:49;25.80;99.90
5796;DHT22;2924;51.458;7.046;2023-05-07T09:07:16;25.00;99.90
5796;DHT22;2924;51.458;7.046;2023-05-07T09:09:42;25.00;99.90
5796;DHT22;2924;51.458;7.046;2023-05-07T09:12:09;24.80;99.90
5796;DHT22;2924;51.458;7.046;2023-05-07T09:14:35;24.10;99.90
5796;DHT22;2924;51.458;7.046;2023-05-07T09:17:00;24.20;99.90
5796;DHT22;2924;51.458;7.046;2023-05-07T09:19:27;24.20;99.90
5796;DHT22;2924;51.458;7.046;2023-05-07T09:22:03;24.30;99.90
5796;DHT22;2924;51.458;7.046;2023-05-07T09:24:29;24.20;99.90
5796;DHT22;2924;51.458;7.046;2023-05-07T09:26:59;24.90;99.90
5796;DHT22;2924;51.458;7.046;2023-05-07T09:29:26;24.90;99.90
5796;DHT22;2924;51.458;7.046;2023-05-07T09:31:54;25.80;99.90
5796;DHT22;2924;51.458;7.046;2023-05-07T09:34:20;26.70;99.90
5796;DHT22;2924;51.458;7.046;2023-05-07T09:36:46;27.20;99.90
5796;DHT22;2924;51.458;7.046;2023-05-07T09:39:12;27.80;99.90
5796;DHT22;2924;51.458;7.046;2023-05-07T09:41:45;27.40;99.90
5796;DHT22;2924;51.458;7.046;2023-05-07T09:44:11;28.10;99.60
5796;DHT22;2924;51.458;7.046;2023-05-07T09:46:38;28.60;99.10
5796;DHT22;2924;51.458;7.046;2023-05-07T09:49:06;27.60;99.70
5796;DHT22;2924;51.458;7.046;2023-05-07T09:51:41;28.10;99.60
5796;DHT22;2924;51.458;7.046;2023-05-07T09:54:09;28.50;98.00
5796;DHT22;2924;51.458;7.046;2023-05-07T09:56:35;28.10;98.20
5796;DHT22;2924;51.458;7.046;2023-05-07T09:59:03;28.40;97.60
5796;DHT22;2924;51.458;7.046;2023-05-07T10:01:31;28.50;97.90
5796;DHT22;2924;51.458;7.046;2023-05-07T10:03:57;28.60;97.40
5796;DHT22;2924;51.458;7.046;2023-05-07T10:06:24;26.10;98.40
5796;DHT22;2924;51.458;7.046;2023-05-07T10:08:52;24.80;99.90
5796;DHT22;2924;51.458;7.046;2023-05-07T10:11:18;25.70;99.90
5796;DHT22;2924;51.458;7.046;2023-05-07T10:13:46;26.60;99.90
5796;DHT22;2924;51.458;7.046;2023-05-07T10:16:13;27.10;99.40
5796;DHT22;2924;51.458;7.046;2023-05-07T10:18:40;27.70;98.80
5796;DHT22;2924;51.458;7.046;2023-05-07T10:21:24;28.60;97.30
5796;DHT22;2924;51.458;7.046;2023-05-07T10:24:00;29.30;96.60
5796;DHT22;2924;51.458;7.046;2023-05-07T10:26:30;29.70;95.50
5796;DHT22;2924;51.458;7.046;2023-05-07T10:29:02;28.10;96.00
5796;DHT22;2924;51.458;7.046;2023-05-07T10:31:52;28.50;97.00
5796;DHT22;2924;51.458;7.046;2023-05-07T10:34:29;28.70;96.00
5796;DHT22;2924;51.458;7.046;2023-05-07T10:36:58;28.40;96.10
5796;DHT22;2924;51.458;7.046;2023-05-07T10:39:24;28.20;96.30
5796;DHT22;2924;51.458;7.046;2023-05-07T10:41:50;27.00;96.60
5796;DHT22;2924;51.458;7.046;2023-05-07T10:44:26;25.80;97.90
5796;DHT22;2924;51.458;7.046;2023-05-07T10:47:11;25.80;98.90
5796;DHT22;2924;51.458;7.046;2023-05-07T10:52:22;25.80;99.60
5796;DHT22;2924;51.458;7.046;2023-05-07T10:57:44;26.20;99.20
5796;DHT22;2924;51.458;7.046;2023-05-07T11:05:26;25.80;98.30
5796;DHT22;2924;51.458;7.046;2023-05-07T11:07:56;25.60;99.30
5796;DHT22;2924;51.458;7.046;2023-05-07T11:10:22;26.10;98.60
5796;DHT22;2924;51.458;7.046;2023-05-07T11:12:51;26.30;97.80
5796;DHT22;2924;51.458;7.046;2023-05-07T11:15:35;25.80;98.70
5796;DHT22;2924;51.458;7.046;2023-05-07T11:18:00;26.70;97.70
5796;DHT22;2924;51.458;7.046;2023-05-07T11:26:10;25.20;99.10
5796;DHT22;2924;51.458;7.046;2023-05-07T11:28:38;24.70;99.90
5796;DHT22;2924;51.458;7.046;2023-05-07T11:31:04;24.70;99.90
5796;DHT22;2924;51.458;7.046;2023-05-07T11:33:34;24.40;99.90
5796;DHT22;2924;51.458;7.046;2023-05-07T11:36:01;23.60;99.90
5796;DHT22;2924;51.458;7.046;2023-05-07T11:38:28;23.50;99.90
5796;DHT22;2924;51.458;7.046;2023-05-07T11:40:56;23.90;99.90
5796;DHT22;2924;51.458;7.046;2023-05-07T11:43:22;24.60;99.90
5796;DHT22;2924;51.458;7.046;2023-05-07T11:45:48;25.20;99.90
5796;DHT22;2924;51.458;7.046;2023-05-07T11:48:14;25.20;99.90
5796;DHT22;2924;51.458;7.046;2023-05-07T11:50:59;25.50;99.90
5796;DHT22;2924;51.458;7.046;2023-05-07T11:53:26;25.40;99.80
5796;DHT22;2924;51.458;7.046;2023-05-07T11:55:52;25.50;99.50
5796;DHT22;2924;51.458;7.046;2023-05-07T11:58:22;25.90;99.90
5796;DHT22;2924;51.458;7.046;2023-05-07T12:00:52;26.90;98.40
5796;DHT22;2924;51.458;7.046;2023-05-07T12:03:17;27.20;97.90
5796;DHT22;2924;51.458;7.046;2023-05-07T12:05:44;27.60;96.80
5796;DHT22;2924;51.458;7.046;2023-05-07T12:08:22;27.60;97.50
5796;DHT22;2924;51.458;7.046;2023-05-07T12:10:49;27.70;96.80
5796;DHT22;2924;51.458;7.046;2023-05-07T12:13:23;27.40;96.70
5796;DHT22;2924;51.458;7.046;2023-05-07T12:15:53;25.90;98.40
5796;DHT22;2924;51.458;7.046;2023-05-07T12:18:19;25.30;99.00
5796;DHT22;2924;51.458;7.046;2023-05-07T12:20:46;24.30;99.90
5796;DHT22;2924;51.458;7.046;2023-05-07T12:23:13;24.40;99.90
5796;DHT22;2924;51.458;7.046;2023-05-07T12:25:39;24.00;99.90
5796;DHT22;2924;51.458;7.046;2023-05-07T12:28:07;24.40;99.90
5796;DHT22;2924;51.458;7.046;2023-05-07T12:30:53;24.90;99.90
5796;DHT22;2924;51.458;7.046;2023-05-07T12:33:23;24.80;99.90
5796;DHT22;2924;51.458;7.046;2023-05-07T12:35:49;25.00;99.90
5796;DHT22;2924;51.458;7.046;2023-05-07T12:38:17;24.00;99.90
5796;DHT22;2924;51.458;7.046;2023-05-07T12:40:50;22.90;99.90
5796;DHT22;2924;51.458;7.046;2023-05-07T12:43:19;22.80;99.90
5796;DHT22;2924;51.458;7.046;2023-05-07T12:45:50;22.70;99.90
5796;DHT22;2924;51.458;7.046;2023-05-07T12:48:16;22.70;99.90
5796;DHT22;2924;51.458;7.046;2023-05-07T12:50:42;22.60;99.90
5796;DHT22;2924;51.458;7.046;2023-05-07T12:53:09;22.70;99.90
5796;DHT22;2924;51.458;7.046;2023-05-07T12:55:46;22.60;99.90
5796;DHT22;2924;51.458;7.046;2023-05-07T12:58:39;22.70;99.90
5796;DHT22;2924;51.458;7.046;2023-05-07T13:01:06;22.60;99.90
5796;DHT22;2924;51.458;7.046;2023-05-07T13:03:34;22.30;99.90
5796;DHT22;2924;51.458;7.046;2023-05-07T13:06:05;21.80;99.90
5796;DHT22;2924;51.458;7.046;2023-05-07T13:08:39;22.00;99.90
5796;DHT22;2924;51.458;7.046;2023-05-07T13:11:08;22.30;99.90
5796;DHT22;2924;51.458;7.046;2023-05-07T13:13:35;22.20;99.90
5796;DHT22;2924;51.458;7.046;2023-05-07T13:16:01;21.90;99.90
5796;DHT22;2924;51.458;7.046;2023-05-07T13:18:30;21.30;99.90
5796;DHT22;2924;51.458;7.046;2023-05-07T13:20:56;21.20;99.90
5796;DHT22;2924;51.458;7.046;2023-05-07T13:23:21;21.20;99.90
5796;DHT22;2924;51.458;7.046;2023-05-07T13:25:48;21.00;99.90
5796;DHT22;2924;51.458;7.046;2023-05-07T13:28:14;21.10;99.90
5796;DHT22;2924;51.458;7.046;2023-05-07T13:30:40;20.80;99.90
5796;DHT22;2924;51.458;7.046;2023-05-07T13:33:06;20.90;99.90
5796;DHT22;2924;51.458;7.046;2023-05-07T13:35:32;20.80;99.90
5796;DHT22;2924;51.458;7.046;2023-05-07T13:37:58;20.60;99.90
5796;DHT22;2924;51.458;7.046;2023-05-07T13:40:24;20.60;99.90
5796;DHT22;2924;51.458;7.046;2023-05-07T13:42:50;20.30;99.90
5796;DHT22;2924;51.458;7.046;2023-05-07T13:45:17;20.20;99.90
5796;DHT22;2924;51.458;7.046;2023-05-07T13:47:43;20.30;99.90
5796;DHT22;2924;51.458;7.046;2023-05-07T13:50:09;20.40;99.90
5796;DHT22;2924;51.458;7.046;2023-05-07T13:52:37;20.50;99.90
5796;DHT22;2924;51.458;7.046;2023-05-07T13:55:03;20.70;99.90
5796;DHT22;2924;51.458;7.046;2023-05-07T13:57:29;20.90;99.90
5796;DHT22;2924;51.458;7.046;2023-05-07T13:59:54;20.90;99.90
5796;DHT22;2924;51.458;7.046;2023-05-07T14:02:20;20.50;99.90
5796;DHT22;2924;51.458;7.046;2023-05-07T14:04:46;20.30;99.90
5796;DHT22;2924;51.458;7.046;2023-05-07T14:07:11;20.30;99.90
5796;DHT22;2924;51.458;7.046;2023-05-07T14:09:37;20.20;99.90
5796;DHT22;2924;51.458;7.046;2023-05-07T14:12:03;20.00;99.90
5796;DHT22;2924;51.458;7.046;2023-05-07T14:14:28;19.80;99.90
5796;DHT22;2924;51.458;7.046;2023-05-07T14:16:54;19.40;99.90
5796;DHT22;2924;51.458;7.046;2023-05-07T14:19:19;19.00;99.90
5796;DHT22;2924;51.458;7.046;2023-05-07T14:21:48;18.60;99.90
5796;DHT22;2924;51.458;7.046;2023-05-07T14:24:13;18.40;99.90
5796;DHT22;2924;51.458;7.046;2023-05-07T14:26:39;18.20;99.90
5796;DHT22;2924;51.458;7.046;2023-05-07T14:29:04;18.00;99.90
5796;DHT22;2924;51.458;7.046;2023-05-07T14:31:30;17.90;99.90
5796;DHT22;2924;51.458;7.046;2023-05-07T14:33:56;17.70;99.90
5796;DHT22;2924;51.458;7.046;2023-05-07T14:36:23;17.70;99.90
5796;DHT22;2924;51.458;7.046;2023-05-07T14:38:52;17.60;99.90
5796;DHT22;2924;51.458;7.046;2023-05-07T14:41:19;17.50;99.90
5796;DHT22;2924;51.458;7.046;2023-05-07T14:43:46;17.40;99.90
5796;DHT22;2924;51.458;7.046;2023-05-07T14:46:16;17.30;99.90
5796;DHT22;2924;51.458;7.046;2023-05-07T14:48:43;17.10;99.90
5796;DHT22;2924;51.458;7.046;2023-05-07T14:51:10;17.20;99.90
5796;DHT22;2924;51.458;7.046;2023-05-07T14:53:35;17.20;99.90
5796;DHT22;2924;51.458;7.046;2023-05-07T14:56:01;17.20;99.90
5796;DHT22;2924;51.458;7.046;2023-05-07T14:58:26;17.20;99.90
5796;DHT22;2924;51.458;7.046;2023-05-07T15:00:52;17.20;99.90
5796;DHT22;2924;51.458;7.046;2023-05-07T15:03:17;17.20;99.90
5796;DHT22;2924;51.458;7.046;2023-05-07T15:05:43;17.20;99.90
5796;DHT22;2924;51.458;7.046;2023-05-07T15:08:09;17.20;99.90
5796;DHT22;2924;51.458;7.046;2023-05-07T15:10:38;17.30;99.90
5796;DHT22;2924;51.458;7.046;2023-05-07T15:13:07;17.50;99.90
5796;DHT22;2924;51.458;7.046;2023-05-07T15:15:33;17.60;99.90
5796;DHT22;2924;51.458;7.046;2023-05-07T15:17:58;17.70;99.90
5796;DHT22;2924;51.458;7.046;2023-05-07T15:20:25;17.70;99.90
5796;DHT22;2924;51.458;7.046;2023-05-07T15:22:51;17.80;99.90
5796;DHT22;2924;51.458;7.046;2023-05-07T15:25:17;17.90;99.90
5796;DHT22;2924;51.458;7.046;2023-05-07T15:27:42;18.00;99.90
5796;DHT22;2924;51.458;7.046;2023-05-07T15:30:08;18.10;99.90
5796;DHT22;2924;51.458;7.046;2023-05-07T15:32:38;18.20;99.90
5796;DHT22;2924;51.458;7.046;2023-05-07T15:35:05;18.40;99.90
5796;DHT22;2924;51.458;7.046;2023-05-07T15:37:31;18.50;99.90
5796;DHT22;2924;51.458;7.046;2023-05-07T15:39:56;18.50;99.90
5796;DHT22;2924;51.458;7.046;2023-05-07T15:42:22;18.40;99.90
5796;DHT22;2924;51.458;7.046;2023-05-07T15:44:47;18.40;99.90
5796;DHT22;2924;51.458;7.046;2023-05-07T15:47:14;18.40;99.90
5796;DHT22;2924;51.458;7.046;2023-05-07T15:49:40;18.50;99.90
5796;DHT22;2924;51.458;7.046;2023-05-07T15:52:06;18.50;99.90
5796;DHT22;2924;51.458;7.046;2023-05-07T15:54:32;18.50;99.90
5796;DHT22;2924;51.458;7.046;2023-05-07T15:56:57;18.50;99.90
5796;DHT22;2924;51.458;7.046;2023-05-07T15:59:23;18.50;99.90
5796;DHT22;2924;51.458;7.046;2023-05-07T16:01:49;18.50;99.90
5796;DHT22;2924;51.458;7.046;2023-05-07T16:04:14;18.50;99.90
5796;DHT22;2924;51.458;7.046;2023-05-07T16:06:40;18.50;99.90
5796;DHT22;2924;51.458;7.046;2023-05-07T16:09:06;18.50;99.90
5796;DHT22;2924;51.458;7.046;2023-05-07T16:11:34;18.60;99.90
5796;DHT22;2924;51.458;7.046;2023-05-07T16:14:00;18.60;99.90
5796;DHT22;2924;51.458;7.046;2023-05-07T16:16:26;18.60;99.90